Terminal Aerodrome Forecast
Issued by NWS Pueblo, CO

Home | Current Version | Previous Version | Text Only | Print | Product List | Glossary On
Versions: 1 2 3 4 5 6 7 8 9 10 11 12 13 14 15 16 17 18 19 20 21 22 23 24
000
FTUS45 KPUB 242336
TAFPUB
TAF
KPUB 242336Z 2500/2524 07009KT P6SM VCSH BKN012
      TEMPO 2500/2502 -SHRA
     FM250500 03008KT P6SM VCSH SCT012 BKN025
     FM251300 04008KT P6SM SCT025 BKN035
     FM251500 05011KT P6SM -SHRA BKN015 OVC020
     FM252000 03012KT P6SM VCSH SCT025 BKN035=

USA.gov is the U.S. government's official web portal to all federal, state and local government web resources and services.